createdAt,value
2022-09-21T00:01:29.659Z,1.17
2022-09-21T00:03:58.973Z,1.33
2022-09-21T00:06:27.760Z,0.98
2022-09-21T00:08:55.570Z,1.00
2022-09-21T00:11:28.032Z,1.15
2022-09-21T00:13:57.746Z,0.90
2022-09-21T00:16:25.156Z,1.00
2022-09-21T00:18:52.211Z,1.10
2022-09-21T00:21:19.185Z,1.00
2022-09-21T00:23:46.139Z,1.05
2022-09-21T00:26:15.842Z,1.02
2022-09-21T00:28:44.520Z,1.20
2022-09-21T00:31:14.336Z,0.88
2022-09-21T00:33:43.435Z,0.98
2022-09-21T00:36:13.086Z,0.93
2022-09-21T00:38:39.972Z,1.20
2022-09-21T00:41:08.367Z,0.93
2022-09-21T00:43:44.685Z,1.13
2022-09-21T00:46:29.945Z,1.00
2022-09-21T00:48:57.956Z,1.08
2022-09-21T00:51:25.952Z,1.20
2022-09-21T00:54:01.568Z,1.02
2022-09-21T00:56:30.065Z,0.93
2022-09-21T00:58:57.504Z,1.00
2022-09-21T01:01:24.954Z,1.00
2022-09-21T01:03:53.426Z,1.10
2022-09-21T01:06:21.414Z,1.00
2022-09-21T01:08:54.143Z,0.90
2022-09-21T01:11:55.003Z,1.10
2022-09-21T01:14:27.505Z,1.00
2022-09-21T01:17:03.980Z,1.00
2022-09-21T01:19:36.328Z,1.20
2022-09-21T01:22:30.148Z,0.90
2022-09-21T01:24:56.879Z,1.10
2022-09-21T01:27:58.751Z,1.10
2022-09-21T01:30:26.085Z,1.70
2022-09-21T01:33:05.251Z,1.08
2022-09-21T01:35:37.897Z,1.13
2022-09-21T01:38:08.842Z,1.10
2022-09-21T01:40:39.944Z,1.20
2022-09-21T01:43:11.750Z,1.20
2022-09-21T01:45:43.412Z,1.33
2022-09-21T01:48:11.595Z,1.30
2022-09-21T01:50:43.749Z,1.02
2022-09-21T01:53:36.148Z,1.20
2022-09-21T01:56:13.372Z,1.45
2022-09-21T01:58:49.392Z,1.52
2022-09-21T02:01:20.978Z,1.70
2022-09-21T02:03:55.894Z,1.17
2022-09-21T02:06:26.733Z,1.30
2022-09-21T02:08:53.914Z,1.35
2022-09-21T02:11:21.312Z,1.50
2022-09-21T02:13:52.539Z,1.40
2022-09-21T02:16:46.757Z,1.52
2022-09-21T02:19:37.341Z,1.50
2022-09-21T02:22:22.339Z,1.30
2022-09-21T02:25:10.508Z,1.60
2022-09-21T02:27:49.590Z,1.38
2022-09-21T02:30:35.634Z,1.48
2022-09-21T02:33:10.402Z,1.75
2022-09-21T02:35:42.879Z,1.70
2022-09-21T02:38:35.700Z,1.67
2022-09-21T02:41:26.543Z,1.40
2022-09-21T02:44:03.515Z,1.40
2022-09-21T02:46:42.303Z,1.40
2022-09-21T02:49:35.107Z,1.40
2022-09-21T02:52:07.566Z,1.58
2022-09-21T02:54:36.091Z,1.40
2022-09-21T02:57:04.631Z,1.70
2022-09-21T02:59:31.762Z,1.60
2022-09-21T03:01:58.919Z,1.63
2022-09-21T03:04:27.887Z,1.55
2022-09-21T03:06:54.791Z,1.50
2022-09-21T03:09:24.277Z,1.48
2022-09-21T03:11:54.626Z,1.23
2022-09-21T03:14:22.935Z,1.70
2022-09-21T03:16:49.748Z,1.40
2022-09-21T03:19:16.812Z,1.40
2022-09-21T03:21:44.845Z,1.40
2022-09-21T03:24:11.844Z,1.48
2022-09-21T03:26:39.089Z,1.60
2022-09-21T03:29:06.042Z,1.52
2022-09-21T03:31:32.962Z,1.50
2022-09-21T03:33:59.746Z,1.58
2022-09-21T03:36:26.812Z,1.35
2022-09-21T03:38:53.634Z,1.60
2022-09-21T03:41:20.848Z,1.33
2022-09-21T03:43:47.664Z,1.52
2022-09-21T03:46:14.441Z,1.70
2022-09-21T03:48:42.512Z,1.50
2022-09-21T03:51:09.388Z,1.50
2022-09-21T03:53:36.144Z,1.70
2022-09-21T03:56:03.051Z,1.77
2022-09-21T03:58:29.914Z,1.45
2022-09-21T04:01:02.373Z,1.58
2022-09-21T04:03:29.816Z,1.55
2022-09-21T04:05:56.627Z,2.00
2022-09-21T04:08:23.402Z,1.80
2022-09-21T04:10:50.239Z,1.88
2022-09-21T04:13:17.011Z,1.55
2022-09-21T04:15:43.849Z,1.85
2022-09-21T04:18:12.049Z,1.75
2022-09-21T04:20:38.851Z,1.52
2022-09-21T04:23:09.887Z,1.60
2022-09-21T04:25:36.917Z,1.65
2022-09-21T04:28:03.787Z,1.60
2022-09-21T04:30:34.363Z,1.65
2022-09-21T04:33:04.684Z,1.73
2022-09-21T04:35:31.549Z,1.80
2022-09-21T04:37:58.305Z,1.95
2022-09-21T04:40:25.170Z,2.15
2022-09-21T04:42:53.460Z,2.25
2022-09-21T04:45:20.935Z,2.40
2022-09-21T04:47:48.011Z,2.65
2022-09-21T04:50:15.264Z,2.25
2022-09-21T04:52:42.726Z,2.33
2022-09-21T04:55:09.743Z,2.38
2022-09-21T04:57:36.488Z,2.63
2022-09-21T05:00:05.780Z,2.40
2022-09-21T05:02:32.676Z,2.38
2022-09-21T05:04:59.709Z,2.50
2022-09-21T05:07:26.601Z,2.40
2022-09-21T05:10:05.463Z,2.63
2022-09-21T05:12:34.456Z,2.83
2022-09-21T05:15:02.218Z,2.55
2022-09-21T05:17:29.208Z,2.25
2022-09-21T05:19:56.124Z,2.35
2022-09-21T05:22:23.035Z,2.72
2022-09-21T05:24:49.788Z,2.83
2022-09-21T05:27:16.739Z,2.20
2022-09-21T05:29:43.796Z,2.47
2022-09-21T05:32:18.723Z,2.30
2022-09-21T05:34:48.262Z,2.70
2022-09-21T05:38:00.112Z,2.60
2022-09-21T05:40:27.402Z,2.20
2022-09-21T05:42:54.533Z,2.78
2022-09-21T05:45:23.006Z,2.50
2022-09-21T05:48:26.784Z,2.50
2022-09-21T05:51:04.124Z,2.50
2022-09-21T05:53:56.722Z,2.17
2022-09-21T05:56:55.687Z,2.58
2022-09-21T05:59:47.280Z,2.30
2022-09-21T06:02:14.086Z,2.47
2022-09-21T06:04:41.213Z,2.20
2022-09-21T06:07:07.981Z,2.30
2022-09-21T06:09:34.776Z,2.42
2022-09-21T06:12:01.710Z,2.10
2022-09-21T06:14:28.677Z,2.50
2022-09-21T06:16:55.501Z,2.28
2022-09-21T06:19:22.280Z,2.30
2022-09-21T06:21:49.238Z,2.35
2022-09-21T06:24:16.035Z,2.40
2022-09-21T06:26:43.062Z,2.22
2022-09-21T06:29:09.881Z,2.30
2022-09-21T06:31:36.719Z,2.05
2022-09-21T06:34:04.042Z,2.10
2022-09-21T06:36:31.189Z,2.35
2022-09-21T06:38:57.983Z,2.50
2022-09-21T06:41:24.812Z,2.40
2022-09-21T06:43:56.001Z,1.90
2022-09-21T06:46:22.912Z,2.40
2022-09-21T06:48:50.554Z,2.35
2022-09-21T06:51:17.550Z,2.10
2022-09-21T06:53:44.303Z,1.90
2022-09-21T06:56:11.276Z,2.10
2022-09-21T06:58:38.582Z,1.92
2022-09-21T07:01:08.114Z,2.05
2022-09-21T07:03:35.729Z,2.25
2022-09-21T07:06:02.507Z,1.77
2022-09-21T07:11:16.229Z,2.08
2022-09-21T07:13:43.064Z,1.77
2022-09-21T07:16:10.442Z,2.25
2022-09-21T07:18:43.484Z,2.00
2022-09-21T07:21:11.466Z,1.60
2022-09-21T07:23:38.322Z,1.90
2022-09-21T07:26:08.595Z,1.88
2022-09-21T07:28:36.407Z,1.90
2022-09-21T07:31:08.896Z,1.67
2022-09-21T07:33:36.707Z,1.40
2022-09-21T07:36:10.327Z,1.50
2022-09-21T07:38:46.137Z,1.33
2022-09-21T07:41:14.068Z,1.52
2022-09-21T07:43:41.461Z,1.25
2022-09-21T07:46:13.164Z,1.20
2022-09-21T07:48:40.502Z,1.52
2022-09-21T07:51:10.083Z,1.20
2022-09-21T07:53:38.539Z,1.13
2022-09-21T07:56:13.327Z,1.13
2022-09-21T07:58:59.211Z,1.20
2022-09-21T08:01:27.398Z,1.17
2022-09-21T08:03:56.329Z,1.20
2022-09-21T08:06:25.716Z,0.82
2022-09-21T08:08:57.504Z,1.10
2022-09-21T08:11:27.671Z,1.30
2022-09-21T08:13:57.322Z,1.77
2022-09-21T08:16:24.530Z,1.15
2022-09-21T08:18:51.921Z,1.10
2022-09-21T08:21:20.360Z,0.90
2022-09-21T08:23:48.128Z,1.00
2022-09-21T08:26:22.670Z,0.70
2022-09-21T08:28:52.655Z,0.90
2022-09-21T08:31:22.162Z,0.65
2022-09-21T08:33:52.409Z,0.80
2022-09-21T08:36:19.674Z,0.90
2022-09-21T08:38:47.279Z,1.00
2022-09-21T08:41:22.883Z,0.85
2022-09-21T08:44:09.014Z,0.88
2022-09-21T08:46:37.811Z,0.65
2022-09-21T08:49:26.205Z,0.63
2022-09-21T08:52:00.061Z,0.80
2022-09-21T08:54:34.882Z,0.77
2022-09-21T08:57:05.357Z,0.98
2022-09-21T08:59:34.350Z,0.70
2022-09-21T09:02:17.515Z,0.80
2022-09-21T09:04:58.505Z,0.80
2022-09-21T09:07:59.496Z,1.17
2022-09-21T09:10:38.403Z,1.08
2022-09-21T09:13:39.709Z,0.85
2022-09-21T09:16:30.018Z,0.82
2022-09-21T09:19:20.438Z,1.10
2022-09-21T09:21:47.567Z,1.05
2022-09-21T09:24:28.127Z,1.00
2022-09-21T09:27:03.879Z,0.90
2022-09-21T09:29:33.452Z,1.00
2022-09-21T09:32:01.830Z,0.95
2022-09-21T09:34:33.607Z,0.90
2022-09-21T09:37:11.163Z,1.05
2022-09-21T09:39:38.991Z,1.42
2022-09-21T09:42:33.871Z,1.00
2022-09-21T09:45:27.430Z,1.08
2022-09-21T09:48:12.311Z,1.30
2022-09-21T09:50:41.728Z,1.05
2022-09-21T09:53:19.066Z,1.00
2022-09-21T09:55:49.515Z,1.60
2022-09-21T09:58:38.194Z,1.10
2022-09-21T10:01:05.788Z,1.15
2022-09-21T10:03:33.435Z,1.10
2022-09-21T10:06:00.243Z,1.00
2022-09-21T10:08:42.414Z,1.05
2022-09-21T10:11:14.438Z,1.23
2022-09-21T10:13:47.323Z,1.10
2022-09-21T10:16:22.821Z,0.80
2022-09-21T10:18:52.937Z,1.23
2022-09-21T10:21:41.236Z,0.90
2022-09-21T10:24:22.987Z,0.70
2022-09-21T10:26:56.838Z,0.80
2022-09-21T10:29:23.575Z,0.82
2022-09-21T10:32:04.016Z,0.80
2022-09-21T10:34:33.551Z,0.85
2022-09-21T10:37:02.792Z,0.80
2022-09-21T10:39:31.948Z,0.70
2022-09-21T10:42:07.204Z,0.90
2022-09-21T10:44:41.367Z,1.00
2022-09-21T10:47:32.904Z,1.20
2022-09-21T10:50:02.812Z,1.38
2022-09-21T10:52:39.914Z,1.02
2022-09-21T10:55:15.087Z,1.00
2022-09-21T10:57:44.172Z,1.00
2022-09-21T11:00:26.217Z,1.20
2022-09-21T11:02:55.327Z,0.90
2022-09-21T11:05:29.320Z,1.13
2022-09-21T11:08:15.913Z,1.08
2022-09-21T11:11:07.177Z,1.08
2022-09-21T11:13:54.236Z,1.05
2022-09-21T11:16:39.772Z,0.95
2022-09-21T11:19:45.229Z,1.00
2022-09-21T11:24:54.424Z,0.70
2022-09-21T11:27:41.776Z,0.80
2022-09-21T11:30:13.052Z,0.80
2022-09-21T11:33:13.420Z,0.60
2022-09-21T11:35:58.946Z,0.75
2022-09-21T11:38:39.918Z,0.60
2022-09-21T11:41:37.211Z,0.82
2022-09-21T11:44:13.097Z,0.80
2022-09-21T11:46:59.572Z,0.70
2022-09-21T11:49:41.408Z,0.70
2022-09-21T11:52:32.951Z,0.60
2022-09-21T11:55:16.003Z,0.63
2022-09-21T11:57:55.059Z,0.77
2022-09-21T12:00:25.019Z,0.90
2022-09-21T12:03:16.116Z,0.60
2022-09-21T12:06:21.238Z,0.65
2022-09-21T12:09:03.232Z,0.50
2022-09-21T12:11:34.988Z,0.88
2022-09-21T12:14:15.324Z,0.75
2022-09-21T12:16:57.656Z,0.60
2022-09-21T12:19:42.527Z,0.65
2022-09-21T12:22:26.814Z,0.63
2022-09-21T12:25:04.200Z,0.63
2022-09-21T12:27:54.665Z,0.63
2022-09-21T12:30:23.318Z,0.70
2022-09-21T12:32:56.128Z,0.80
2022-09-21T12:35:47.545Z,0.60
2022-09-21T12:38:26.812Z,0.65
2022-09-21T12:41:13.954Z,0.40
2022-09-21T12:44:00.379Z,0.63
2022-09-21T12:46:38.047Z,0.60
2022-09-21T12:49:14.334Z,0.60
2022-09-21T12:51:52.358Z,0.90
2022-09-21T12:54:54.057Z,0.57
2022-09-21T12:58:14.463Z,0.70
2022-09-21T13:00:57.678Z,0.52
2022-09-21T13:03:39.901Z,0.60
2022-09-21T13:06:29.318Z,0.40
2022-09-21T13:08:57.357Z,0.60
2022-09-21T13:11:24.426Z,0.40
2022-09-21T13:13:59.420Z,0.70
2022-09-21T13:16:38.880Z,0.70
2022-09-21T13:19:24.724Z,0.52
2022-09-21T13:22:13.776Z,0.68
2022-09-21T13:24:42.994Z,0.43
2022-09-21T13:27:10.043Z,0.80
2022-09-21T13:29:40.005Z,0.50
2022-09-21T13:32:13.737Z,0.73
2022-09-21T13:34:45.283Z,0.50
2022-09-21T13:37:13.833Z,0.50
2022-09-21T13:39:56.020Z,0.45
2022-09-21T13:42:35.072Z,0.30
2022-09-21T13:45:24.241Z,0.40
2022-09-21T13:47:58.918Z,0.40
2022-09-21T13:50:45.293Z,0.60
2022-09-21T13:53:23.633Z,0.30
2022-09-21T13:55:53.846Z,0.60
2022-09-21T13:58:43.882Z,0.40
2022-09-21T14:01:57.922Z,0.55
2022-09-21T14:04:27.792Z,0.30
2022-09-21T14:06:56.956Z,0.30
2022-09-21T14:09:28.955Z,0.50
2022-09-21T14:12:01.683Z,0.30
2022-09-21T14:14:39.049Z,0.43
2022-09-21T14:17:35.967Z,0.40
2022-09-21T14:20:05.096Z,0.40
2022-09-21T14:22:38.151Z,0.40
2022-09-21T14:25:47.822Z,0.40
2022-09-21T14:28:18.324Z,0.30
2022-09-21T14:30:59.063Z,0.32
2022-09-21T14:33:35.805Z,0.38
2022-09-21T14:36:08.723Z,0.30
2022-09-21T14:38:46.053Z,0.30
2022-09-21T14:41:19.806Z,0.30
2022-09-21T14:43:52.899Z,0.52
2022-09-21T14:46:31.670Z,0.50
2022-09-21T14:49:30.132Z,0.50
2022-09-21T14:52:21.098Z,0.30
2022-09-21T14:55:23.725Z,0.40
2022-09-21T14:58:19.185Z,0.40
2022-09-21T15:00:50.232Z,0.40
2022-09-21T15:03:39.277Z,0.30
2022-09-21T15:06:41.055Z,0.32
2022-09-21T15:09:41.151Z,0.45
2022-09-21T15:12:23.571Z,0.60
2022-09-21T15:15:01.441Z,0.50
2022-09-21T15:17:32.443Z,0.40
2022-09-21T15:20:03.535Z,0.50
2022-09-21T15:22:31.930Z,0.30
2022-09-21T15:25:03.934Z,0.43
2022-09-21T15:27:33.105Z,0.47
2022-09-21T15:30:02.521Z,0.40
2022-09-21T15:32:47.139Z,0.50
2022-09-21T15:35:24.157Z,0.40
2022-09-21T15:37:51.778Z,0.30
2022-09-21T15:40:33.723Z,0.30
2022-09-21T15:43:08.932Z,0.30
2022-09-21T15:45:58.067Z,0.40
2022-09-21T15:48:39.763Z,0.40
2022-09-21T15:51:29.954Z,0.30
2022-09-21T15:54:15.340Z,0.30
2022-09-21T15:56:45.333Z,0.30
2022-09-21T15:59:20.795Z,0.40
2022-09-21T16:01:53.089Z,0.40
2022-09-21T16:04:25.149Z,0.20
2022-09-21T16:07:04.651Z,0.40
2022-09-21T16:09:46.404Z,0.30
2022-09-21T16:12:37.266Z,0.40
2022-09-21T16:15:07.706Z,0.35
2022-09-21T16:17:38.706Z,0.30
2022-09-21T16:20:16.189Z,0.30
2022-09-21T16:22:45.522Z,0.43
2022-09-21T16:25:40.419Z,0.22
2022-09-21T16:28:40.389Z,0.30
2022-09-21T16:31:32.053Z,0.30
2022-09-21T16:34:06.373Z,0.43
2022-09-21T16:36:38.694Z,0.40
2022-09-21T16:39:14.906Z,0.30
2022-09-21T16:41:48.292Z,0.43
2022-09-21T16:44:21.016Z,0.35
2022-09-21T16:46:51.493Z,0.30
2022-09-21T16:49:20.482Z,0.38
2022-09-21T16:51:49.025Z,0.32
2022-09-21T16:54:17.829Z,0.30
2022-09-21T16:56:46.369Z,0.40
2022-09-21T16:59:24.657Z,0.35
2022-09-21T17:01:56.366Z,0.50
2022-09-21T17:04:26.639Z,0.40
2022-09-21T17:06:55.132Z,0.30
2022-09-21T17:09:32.027Z,0.30
2022-09-21T17:12:01.409Z,0.40
2022-09-21T17:14:32.938Z,0.40
2022-09-21T17:17:00.178Z,0.35
2022-09-21T17:19:27.100Z,0.40
2022-09-21T17:21:53.847Z,0.22
2022-09-21T17:24:45.866Z,0.30
2022-09-21T17:27:08.238Z,0.40
2022-09-21T17:29:39.208Z,0.40
2022-09-21T17:32:09.460Z,0.52
2022-09-21T17:34:36.519Z,0.60
2022-09-21T17:37:03.392Z,0.50
2022-09-21T17:39:30.164Z,0.40
2022-09-21T17:41:58.955Z,0.40
2022-09-21T17:44:41.920Z,0.50
2022-09-21T17:47:27.999Z,0.40
2022-09-21T17:49:59.033Z,0.40
2022-09-21T17:52:44.838Z,0.50
2022-09-21T17:55:13.282Z,0.40
2022-09-21T17:57:59.314Z,0.50
2022-09-21T18:01:01.938Z,0.43
2022-09-21T18:03:31.719Z,0.40
2022-09-21T18:06:01.744Z,0.50
2022-09-21T18:08:30.692Z,0.50
2022-09-21T18:11:15.696Z,0.45
2022-09-21T18:13:54.582Z,0.63
2022-09-21T18:16:31.031Z,0.50
2022-09-21T18:19:04.609Z,0.55
2022-09-21T18:21:36.028Z,0.73
2022-09-21T18:24:08.668Z,0.75
2022-09-21T18:26:35.842Z,0.80
2022-09-21T18:29:22.571Z,1.25
2022-09-21T18:31:57.852Z,1.08
2022-09-21T18:34:40.825Z,1.10
2022-09-21T18:37:22.576Z,1.25
2022-09-21T18:40:22.026Z,1.30
2022-09-21T18:43:18.786Z,1.13
2022-09-21T18:45:57.781Z,1.10
2022-09-21T18:48:50.731Z,1.23
2022-09-21T18:51:39.445Z,1.20
2022-09-21T18:54:13.743Z,1.25
2022-09-21T18:56:40.696Z,1.20
2022-09-21T18:59:11.561Z,1.17
2022-09-21T19:01:38.853Z,1.48
2022-09-21T19:04:06.212Z,1.30
2022-09-21T19:06:42.602Z,1.30
2022-09-21T19:09:33.622Z,1.30
2022-09-21T19:12:00.540Z,1.30
2022-09-21T19:14:36.544Z,1.38
2022-09-21T19:17:15.999Z,1.40
2022-09-21T19:19:59.647Z,1.48
2022-09-21T19:22:42.591Z,1.20
2022-09-21T19:25:28.195Z,1.20
2022-09-21T19:28:02.710Z,1.10
2022-09-21T19:30:30.140Z,1.42
2022-09-21T19:32:58.286Z,1.48
2022-09-21T19:35:32.175Z,1.30
2022-09-21T19:38:01.548Z,1.10
2022-09-21T19:40:33.752Z,1.10
2022-09-21T19:43:11.308Z,1.20
2022-09-21T19:46:06.199Z,1.15
2022-09-21T19:51:38.733Z,1.10
2022-09-21T19:54:32.917Z,1.30
2022-09-21T19:57:18.876Z,1.10
2022-09-21T19:59:47.226Z,1.00
2022-09-21T20:02:28.689Z,1.20
2022-09-21T20:05:15.317Z,1.20
2022-09-21T20:07:55.076Z,1.00
2022-09-21T20:10:36.858Z,1.00
2022-09-21T20:13:31.133Z,1.25
2022-09-21T20:16:28.742Z,1.20
2022-09-21T20:19:20.896Z,1.20
2022-09-21T20:21:56.895Z,1.30
2022-09-21T20:24:48.509Z,1.20
2022-09-21T20:27:37.071Z,1.30
2022-09-21T20:30:10.216Z,1.20
2022-09-21T20:32:39.512Z,1.40
2022-09-21T20:35:28.108Z,1.10
2022-09-21T20:37:58.603Z,1.20
2022-09-21T20:40:29.043Z,1.15
2022-09-21T20:42:57.012Z,1.50
2022-09-21T20:45:23.948Z,1.55
2022-09-21T20:47:52.187Z,1.50
2022-09-21T20:50:19.348Z,1.40
2022-09-21T20:52:46.168Z,1.13
2022-09-21T20:55:20.433Z,1.42
2022-09-21T20:57:47.318Z,1.20
2022-09-21T21:00:15.868Z,1.50
2022-09-21T21:02:43.313Z,1.38
2022-09-21T21:05:11.275Z,1.33
2022-09-21T21:07:40.018Z,1.40
2022-09-21T21:10:07.147Z,1.30
2022-09-21T21:12:33.906Z,1.55
2022-09-21T21:15:00.654Z,1.30
2022-09-21T21:17:27.694Z,1.30
2022-09-21T21:19:54.565Z,1.10
2022-09-21T21:22:21.311Z,1.30
2022-09-21T21:24:48.147Z,1.20
2022-09-21T21:27:20.419Z,1.38
2022-09-21T21:29:52.934Z,1.02
2022-09-21T21:32:26.044Z,1.20
2022-09-21T21:34:54.138Z,1.00
2022-09-21T21:37:23.304Z,0.98
2022-09-21T21:39:50.356Z,1.00
2022-09-21T21:42:18.173Z,1.30
2022-09-21T21:44:46.676Z,1.17
2022-09-21T21:47:40.186Z,1.13
2022-09-21T21:50:08.323Z,1.10
2022-09-21T21:52:35.077Z,1.00
2022-09-21T21:55:02.485Z,1.20
2022-09-21T21:57:29.400Z,1.10
2022-09-21T21:59:56.173Z,1.20
2022-09-21T22:02:24.010Z,0.90
2022-09-21T22:04:50.835Z,1.08
2022-09-21T22:07:17.582Z,1.05
2022-09-21T22:09:44.328Z,1.00
2022-09-21T22:12:11.938Z,1.00
2022-09-21T22:14:38.986Z,0.93
2022-09-21T22:17:05.707Z,1.10
2022-09-21T22:19:32.984Z,1.10
2022-09-21T22:21:59.768Z,1.17
2022-09-21T22:24:26.820Z,1.13
2022-09-21T22:26:53.635Z,0.88
2022-09-21T22:29:20.439Z,0.98
2022-09-21T22:31:49.371Z,1.10
2022-09-21T22:34:16.831Z,1.00
2022-09-21T22:36:44.126Z,1.00
2022-09-21T22:39:11.671Z,0.90
2022-09-21T22:41:40.997Z,0.90
2022-09-21T22:44:08.242Z,0.65
2022-09-21T22:46:35.704Z,0.80
2022-09-21T22:49:02.970Z,0.68
2022-09-21T22:51:30.494Z,0.60
2022-09-21T22:53:57.972Z,0.85
2022-09-21T22:56:30.345Z,0.70
2022-09-21T22:59:00.213Z,0.77
2022-09-21T23:01:34.103Z,0.60
2022-09-21T23:04:04.258Z,0.80
2022-09-21T23:06:33.481Z,0.70
2022-09-21T23:09:02.471Z,0.80
2022-09-21T23:11:32.597Z,0.98
2022-09-21T23:14:00.071Z,0.82
2022-09-21T23:16:28.381Z,0.77
2022-09-21T23:18:55.929Z,0.80
2022-09-21T23:21:24.937Z,1.00
2022-09-21T23:23:56.011Z,0.70
2022-09-21T23:26:24.451Z,0.90
2022-09-21T23:29:02.380Z,0.60
2022-09-21T23:31:31.421Z,0.60
2022-09-21T23:34:09.256Z,0.70
2022-09-21T23:36:36.551Z,0.60
2022-09-21T23:39:05.473Z,0.60
2022-09-21T23:41:34.799Z,0.70
2022-09-21T23:44:02.004Z,0.82
2022-09-21T23:46:34.831Z,0.80
2022-09-21T23:49:01.996Z,0.80
2022-09-21T23:51:30.028Z,0.80
2022-09-21T23:53:57.919Z,0.77
2022-09-21T23:56:25.224Z,0.73
2022-09-21T23:58:52.724Z,0.60
